Time;durP1;ratioP1;P1;durP2;ratioP2;P2;SDS_P1;SDS_P2;PMS_P1;PMS_P2;Temp;Humidity;BMP_temperature;BMP_pressure;BME280_temperature;BME280_humidity;BME280_pressure;Samples;Min_cycle;Max_cycle;Signal;HPM_P1;HPM_P2
2021/07/18 00:00:24;;;;;;;0.80;0.80;;;;;;;16.63;100.00;35897.31;5045731;28;20486;-73
2021/07/18 00:02:50;;;;;;;0.80;0.80;;;;;;;16.67;100.00;30642.38;5039209;28;20464;-72
2021/07/18 00:05:18;;;;;;;0.73;0.70;;;;;;;16.76;100.00;26397.81;5024293;28;20467;-73
2021/07/18 00:07:45;;;;;;;0.80;0.70;;;;;;;16.71;100.00;22410.66;5029952;28;20494;-75
2021/07/18 00:10:13;;;;;;;0.80;0.70;;;;;;;16.63;100.00;18734.69;5032309;28;20489;-73
2021/07/18 00:12:40;;;;;;;1.00;1.00;;;;;;;16.57;100.00;15056.88;5048562;28;20552;-73
2021/07/18 00:15:11;;;;;;;0.70;0.70;;;;;;;16.48;100.00;11574.44;5050192;28;20550;-74
2021/07/18 00:17:39;;;;;;;0.80;0.60;;;;;;;16.45;100.00;7610.75;5048132;28;20462;-72
2021/07/18 00:20:10;;;;;;;0.80;0.70;;;;;;;16.46;100.00;3828.41;5049247;28;20454;-74
2021/07/18 00:22:37;;;;;;;0.70;0.70;;;;;;;16.40;100.00;156.84;5048119;28;20541;-74
2021/07/18 00:25:05;;;;;;;0.80;0.80;;;;;;;16.35;100.00;-3759.06;5026662;28;20488;-73
2021/07/18 00:27:36;;;;;;;0.70;0.60;;;;;;;16.37;100.00;-6911.03;5029385;28;20455;-75
2021/07/18 00:30:03;;;;;;;0.70;0.70;;;;;;;16.31;100.00;-10368.81;5027977;28;20592;-72
2021/07/18 00:32:32;;;;;;;0.70;0.70;;;;;;;16.28;100.00;-13582.09;5028932;28;20472;-74
2021/07/18 00:34:59;;;;;;;0.73;0.70;;;;;;;16.22;100.00;-16269.97;5027852;28;20482;-74
2021/07/18 00:37:26;;;;;;;0.70;0.60;;;;;;;16.24;100.00;-18301.97;5028708;28;20479;-73
2021/07/18 00:39:53;;;;;;;0.70;0.70;;;;;;;16.24;100.00;-20054.28;5037770;28;20470;-74
2021/07/18 00:42:20;;;;;;;0.80;0.70;;;;;;;16.25;100.00;-21123.06;5047689;28;20460;-74
2021/07/18 00:44:47;;;;;;;0.80;0.70;;;;;;;16.21;100.00;-21121.97;5048548;28;20459;-74
2021/07/18 00:47:14;;;;;;;0.77;0.70;;;;;;;16.22;100.00;-21122.09;5049497;28;20448;-74
2021/07/18 00:49:43;;;;;;;0.70;0.60;;;;;;;16.20;100.00;-21121.69;5049737;28;21056;-74
2021/07/18 00:52:10;;;;;;;0.70;0.70;;;;;;;16.14;100.00;-21120.03;5049048;28;20452;-73
2021/07/18 00:54:37;;;;;;;0.70;0.60;;;;;;;16.11;100.00;-21119.22;5048755;28;20539;-74
2021/07/18 00:57:05;;;;;;;0.70;0.70;;;;;;;16.06;100.00;-21117.84;5031073;28;20459;-73
2021/07/18 00:59:33;;;;;;;0.70;0.70;;;;;;;16.04;100.00;-21117.28;5047679;28;20475;-73
2021/07/18 01:02:00;;;;;;;0.70;0.60;;;;;;;15.95;100.00;-21114.94;5048171;28;20460;-72
2021/07/18 01:04:28;;;;;;;0.70;0.70;;;;;;;15.90;100.00;-21113.56;5031335;28;20485;-74
2021/07/18 01:06:57;;;;;;;0.70;0.60;;;;;;;15.85;100.00;-21112.19;5031522;28;20521;-74
2021/07/18 01:09:24;;;;;;;0.70;0.60;;;;;;;15.77;100.00;-21110.13;5034269;28;20480;-74
2021/07/18 01:11:52;;;;;;;0.80;0.70;;;;;;;15.71;100.00;-21108.50;5046241;28;20466;-74
2021/07/18 01:14:20;;;;;;;0.80;0.70;;;;;;;15.68;100.00;-21107.66;5046626;28;20550;-74
2021/07/18 01:16:47;;;;;;;0.80;0.80;;;;;;;15.62;100.00;-21106.16;5048667;28;20453;-74
2021/07/18 01:19:19;;;;;;;0.70;0.70;;;;;;;15.62;100.00;-21106.16;5043619;28;20485;-73
2021/07/18 01:21:52;;;;;;;0.80;0.73;;;;;;;15.56;100.00;-21104.50;5049411;28;20460;-73
2021/07/18 01:24:20;;;;;;;0.80;0.70;;;;;;;15.51;100.00;-21103.00;5046712;28;20459;-74
2021/07/18 01:26:47;;;;;;;0.73;0.67;;;;;;;15.49;100.00;-21102.44;5047422;28;20448;-74
2021/07/18 01:29:14;;;;;;;0.80;0.73;;;;;;;15.45;100.00;-21101.63;5026318;28;20448;-74
2021/07/18 01:31:41;;;;;;;0.80;0.70;;;;;;;15.38;100.00;-21099.69;5027212;28;20484;-74
2021/07/18 01:34:08;;;;;;;0.70;0.70;;;;;;;15.36;100.00;-21099.13;5027793;28;20475;-74
2021/07/18 01:36:36;;;;;;;0.80;0.80;;;;;;;15.34;100.00;-21098.59;5011890;28;20555;-73
2021/07/18 01:39:07;;;;;;;0.80;0.70;;;;;;;15.34;100.00;-21098.59;5010262;28;20482;-74
2021/07/18 01:41:35;;;;;;;0.70;0.70;;;;;;;15.28;100.00;-21096.94;5027326;28;20498;-74
2021/07/18 01:44:03;;;;;;;0.70;0.60;;;;;;;15.29;100.00;-21097.06;5026671;28;20483;-74
2021/07/18 01:46:30;;;;;;;0.70;0.63;;;;;;;15.27;100.00;-21096.66;5013149;28;20458;-74
2021/07/18 01:48:58;;;;;;;0.80;0.70;;;;;;;15.32;100.00;-21098.03;5036197;28;20466;-74
2021/07/18 01:51:26;;;;;;;0.70;0.70;;;;;;;15.27;100.00;-21096.53;5028237;28;21591;-74
2021/07/18 01:53:55;;;;;;;0.70;0.70;;;;;;;15.21;100.00;-21095.00;5029472;28;20473;-75
2021/07/18 01:56:25;;;;;;;0.80;0.70;;;;;;;15.24;100.00;-21095.84;5026506;28;20449;-74
2021/07/18 01:58:53;;;;;;;0.77;0.70;;;;;;;15.25;100.00;-21096.13;5028350;28;20483;-74
2021/07/18 02:01:25;;;;;;;0.80;0.80;;;;;;;15.19;100.00;-21094.59;5028069;28;20450;-74
2021/07/18 02:03:53;;;;;;;0.80;0.73;;;;;;;15.14;100.00;-21093.09;5027012;28;20815;-73
2021/07/18 02:06:22;;;;;;;1.10;1.00;;;;;;;15.14;100.00;-21093.09;5030973;28;20479;-74
2021/07/18 02:08:50;;;;;;;0.80;0.70;;;;;;;15.13;100.00;-21092.94;5026524;28;20828;-73
2021/07/18 02:11:17;;;;;;;0.70;0.70;;;;;;;15.12;100.00;-21092.69;5026844;28;20455;-74
2021/07/18 02:13:48;;;;;;;0.93;0.90;;;;;;;15.05;100.00;-21090.63;5009871;28;20467;-74
2021/07/18 02:16:15;;;;;;;0.70;0.70;;;;;;;15.03;100.00;-21090.06;5030684;28;20544;-73
2021/07/18 02:18:43;;;;;;;0.70;0.70;;;;;;;15.02;100.00;-21089.78;5028143;28;20476;-73
2021/07/18 02:21:10;;;;;;;0.80;0.70;;;;;;;14.97;100.00;-21088.56;5027441;28;20523;-73
2021/07/18 02:23:38;;;;;;;0.70;0.70;;;;;;;14.96;100.00;-21088.41;5026596;28;20826;-73
2021/07/18 02:26:05;;;;;;;0.80;0.80;;;;;;;14.95;100.00;-21088.13;5028070;28;20465;-73
2021/07/18 02:28:32;;;;;;;0.73;0.70;;;;;;;14.95;100.00;-21088.13;5026066;28;21026;-74
2021/07/18 02:31:04;;;;;;;0.80;0.80;;;;;;;14.93;100.00;-21087.59;5027387;28;21064;-73
2021/07/18 02:33:31;;;;;;;0.80;0.80;;;;;;;14.93;100.00;-21087.59;5027710;28;20464;-74
2021/07/18 02:35:59;;;;;;;0.73;0.70;;;;;;;14.92;100.00;-21087.31;5026901;28;20456;-74
2021/07/18 02:38:27;;;;;;;0.73;0.70;;;;;;;14.89;100.00;-21086.50;5045714;28;20537;-74
2021/07/18 02:40:54;;;;;;;0.70;0.70;;;;;;;14.88;100.00;-21086.22;5047246;28;20969;-74
2021/07/18 02:43:21;;;;;;;0.80;0.70;;;;;;;14.90;100.00;-21086.75;5039042;28;20471;-74
2021/07/18 02:45:48;;;;;;;0.77;0.70;;;;;;;14.86;100.00;-21085.53;5026190;28;20903;-73
2021/07/18 02:48:16;;;;;;;0.80;0.73;;;;;;;14.89;100.00;-21086.50;5046713;28;20461;-74
2021/07/18 02:50:43;;;;;;;0.80;0.80;;;;;;;14.85;100.00;-21085.38;5027438;28;20488;-74
2021/07/18 02:53:11;;;;;;;0.70;0.70;;;;;;;14.84;100.00;-21085.13;5024976;28;20544;-74
2021/07/18 02:55:38;;;;;;;0.80;0.77;;;;;;;14.90;100.00;-21086.63;5026559;28;20457;-74
2021/07/18 02:58:05;;;;;;;0.80;0.77;;;;;;;14.92;100.00;-21087.31;5027873;28;21928;-74
2021/07/18 03:00:33;;;;;;;0.80;0.70;;;;;;;14.91;100.00;-21087.03;5026532;28;20540;-73
2021/07/18 03:03:00;;;;;;;0.77;0.70;;;;;;;14.93;100.00;-21087.44;5026197;28;20469;-73
2021/07/18 03:05:29;;;;;;;0.80;0.80;;;;;;;14.93;100.00;-21087.59;5046206;28;20477;-73
2021/07/18 03:07:56;;;;;;;0.70;0.70;;;;;;;14.90;100.00;-21086.75;5030566;28;20551;-73
2021/07/18 03:10:24;;;;;;;0.70;0.70;;;;;;;14.91;100.00;-21086.91;5027314;28;20499;-74
2021/07/18 03:12:50;;;;;;;0.70;0.70;;;;;;;14.89;100.00;-21086.34;5025739;28;20453;-74
2021/07/18 03:15:18;;;;;;;0.70;0.70;;;;;;;14.92;100.00;-21087.31;5027778;28;20484;-74
2021/07/18 03:17:45;;;;;;;0.70;0.70;;;;;;;14.94;100.00;-21087.72;5028590;28;20471;-73
2021/07/18 03:20:14;;;;;;;0.80;0.80;;;;;;;14.91;100.00;-21087.03;5029232;28;20476;-74
2021/07/18 03:22:43;;;;;;;0.70;0.70;;;;;;;14.97;100.00;-21088.69;5044973;28;20974;-73
2021/07/18 03:25:11;;;;;;;0.70;0.70;;;;;;;14.95;100.00;-21088.13;5025452;28;20466;-74
2021/07/18 03:27:39;;;;;;;0.70;0.60;;;;;;;14.94;100.00;-21087.84;5047348;28;20457;-73
2021/07/18 03:30:09;;;;;;;0.70;0.70;;;;;;;14.97;100.00;-21088.69;5044102;28;20488;-74
2021/07/18 03:32:36;;;;;;;0.80;0.70;;;;;;;14.95;100.00;-21088.13;5044105;28;20467;-72
2021/07/18 03:35:05;;;;;;;0.80;0.77;;;;;;;14.97;100.00;-21088.56;5044526;28;20451;-74
2021/07/18 03:37:34;;;;;;;0.80;0.70;;;;;;;14.94;100.00;-21087.84;5045658;28;20825;-74
2021/07/18 03:40:03;;;;;;;0.80;0.80;;;;;;;14.96;100.00;-21088.41;5045463;28;21441;-74
2021/07/18 03:42:31;;;;;;;0.70;0.70;;;;;;;15.01;100.00;-21089.50;5049192;28;20472;-73
2021/07/18 03:44:58;;;;;;;0.80;0.70;;;;;;;14.94;100.00;-21087.84;5046669;28;20543;-74
2021/07/18 03:47:25;;;;;;;0.80;0.80;;;;;;;15.01;100.00;-21089.66;5042165;28;20466;-74
2021/07/18 03:49:52;;;;;;;0.80;0.73;;;;;;;14.92;100.00;-21087.31;5035775;28;20476;-73
2021/07/18 03:52:18;;;;;;;0.80;0.70;;;;;;;14.89;100.00;-21086.34;5050790;28;20451;-74
2021/07/18 03:54:45;;;;;;;0.80;0.80;;;;;;;14.81;100.00;-21084.28;5049797;28;20547;-74
2021/07/18 03:57:14;;;;;;;0.80;0.70;;;;;;;14.82;100.00;-21084.56;5042939;28;20856;-73
2021/07/18 03:59:40;;;;;;;0.80;0.80;;;;;;;14.86;100.00;-21085.66;5029125;28;20486;-74
2021/07/18 04:02:08;;;;;;;0.70;0.70;;;;;;;14.78;100.00;-21083.47;5039371;28;20456;-74
2021/07/18 04:04:36;;;;;;;0.80;0.70;;;;;;;14.80;100.00;-21084.00;5049522;28;20448;-74
2021/07/18 04:07:03;;;;;;;0.80;0.70;;;;;;;14.97;100.00;-21088.69;5048922;28;20534;-73
2021/07/18 04:09:30;;;;;;;0.70;0.70;;;;;;;15.02;100.00;-21089.78;5049447;28;20554;-75
2021/07/18 04:11:56;;;;;;;0.70;0.70;;;;;;;15.07;100.00;-21091.16;5049770;28;20467;-74
2021/07/18 04:14:26;;;;;;;0.80;0.77;;;;;;;15.07;100.00;-21091.31;5050626;28;20452;-74
2021/07/18 04:16:53;;;;;;;0.70;0.67;;;;;;;15.14;100.00;-21093.09;5049010;28;20495;-76
2021/07/18 04:19:20;;;;;;;0.70;0.70;;;;;;;15.17;100.00;-21094.06;5031391;28;20487;-74
2021/07/18 04:21:46;;;;;;;0.80;0.70;;;;;;;15.13;100.00;-21092.81;5049014;28;20499;-75
2021/07/18 04:24:13;;;;;;;0.70;0.60;;;;;;;15.18;100.00;-21094.19;5048976;28;20812;-76
2021/07/18 04:26:40;;;;;;;0.70;0.70;;;;;;;15.19;100.00;-21094.47;5048268;28;20448;-75
2021/07/18 04:29:07;;;;;;;0.70;0.70;;;;;;;15.22;100.00;-21095.28;5031970;28;21446;-76
2021/07/18 04:31:35;;;;;;;0.70;0.70;;;;;;;15.20;100.00;-21094.88;5036038;28;20456;-75
2021/07/18 04:34:02;;;;;;;0.80;0.70;;;;;;;15.22;100.00;-21095.28;5028589;28;20456;-75
2021/07/18 04:36:29;;;;;;;0.80;0.70;;;;;;;15.33;100.00;-21098.31;5028790;28;20457;-75
2021/07/18 04:38:57;;;;;;;0.70;0.60;;;;;;;15.40;100.00;-21100.09;5039120;28;20962;-75
2021/07/18 04:41:24;;;;;;;0.77;0.73;;;;;;;15.48;100.00;-21102.16;5048805;28;20520;-76
2021/07/18 04:43:51;;;;;;;0.80;0.80;;;;;;;15.59;100.00;-21105.19;5048900;28;20455;-76
2021/07/18 04:46:18;;;;;;;0.70;0.70;;;;;;;15.64;100.00;-21106.56;5048578;28;20956;-75
2021/07/18 04:48:47;;;;;;;0.70;0.70;;;;;;;15.66;100.00;-21107.13;5047659;28;20815;-74
2021/07/18 04:51:14;;;;;;;0.80;0.80;;;;;;;15.69;100.00;-21108.09;5048607;28;20456;-76
2021/07/18 04:53:41;;;;;;;0.70;0.60;;;;;;;15.72;100.00;-21108.75;5045705;28;20457;-75
2021/07/18 04:56:08;;;;;;;0.70;0.70;;;;;;;15.79;100.00;-21110.69;5049905;28;20456;-75
2021/07/18 04:58:37;;;;;;;0.73;0.70;;;;;;;15.92;100.00;-21114.25;5049115;28;20526;-75
2021/07/18 05:01:05;;;;;;;0.70;0.70;;;;;;;15.97;100.00;-21115.50;5028446;28;20476;-76
2021/07/18 05:03:32;;;;;;;0.70;0.70;;;;;;;16.05;100.00;-21117.56;5029134;28;20461;-75
2021/07/18 05:06:05;;;;;;;0.70;0.70;;;;;;;16.14;100.00;-21120.03;5029400;28;20463;-76
2021/07/18 05:08:33;;;;;;;0.70;0.70;;;;;;;16.15;100.00;-21120.31;5026769;28;20522;-75
2021/07/18 05:11:00;;;;;;;0.70;0.70;;;;;;;16.22;100.00;-21122.22;5027625;28;20516;-75
2021/07/18 05:13:27;;;;;;;0.70;0.70;;;;;;;16.26;100.00;-21123.31;5032478;28;20527;-74
2021/07/18 05:15:54;;;;;;;0.80;0.80;;;;;;;16.38;100.00;-21126.63;5048495;28;20872;-75
2021/07/18 05:18:21;;;;;;;0.70;0.70;;;;;;;16.45;100.00;-21128.28;5049293;28;21016;-75
2021/07/18 05:20:48;;;;;;;0.70;0.70;;;;;;;16.56;100.00;-21131.44;5047983;28;20541;-74
2021/07/18 05:23:17;;;;;;;0.70;0.70;;;;;;;16.61;100.00;-21132.66;5030322;28;20812;-74
2021/07/18 05:25:44;;;;;;;0.80;0.80;;;;;;;16.71;100.00;-21135.41;5045334;28;20462;-75
2021/07/18 05:28:11;;;;;;;0.70;0.70;;;;;;;16.80;100.00;-21137.75;5046599;28;20964;-75
2021/07/18 05:30:41;;;;;;;0.70;0.70;;;;;;;16.76;100.00;-21136.78;5047460;28;20483;-76
2021/07/18 05:33:08;;;;;;;2.50;2.40;;;;;;;16.87;100.00;-21139.81;5041439;28;20507;-76
2021/07/18 05:35:35;;;;;;;0.70;0.70;;;;;;;17.00;100.00;-21143.09;5029414;28;20543;-76
2021/07/18 05:38:02;;;;;;;0.70;0.70;;;;;;;17.04;100.00;-21144.19;5031633;28;20509;-74
2021/07/18 05:40:31;;;;;;;0.70;0.60;;;;;;;17.16;100.00;-21147.50;5042790;28;20997;-74
2021/07/18 05:42:58;;;;;;;0.70;0.60;;;;;;;17.20;100.00;-21148.59;5037056;28;20468;-76
2021/07/18 05:45:25;;;;;;;0.80;0.80;;;;;;;17.25;100.00;-21149.81;5036170;28;20471;-75
2021/07/18 05:47:52;;;;;;;0.80;0.73;;;;;;;17.25;100.00;-21149.97;5031101;28;20459;-75
2021/07/18 05:50:19;;;;;;;0.77;0.73;;;;;;;17.28;100.00;-21150.66;5029217;28;20837;-75
2021/07/18 05:52:46;;;;;;;0.80;0.80;;;;;;;17.35;100.00;-21152.69;5026630;28;20514;-73
2021/07/18 05:55:14;;;;;;;0.70;0.60;;;;;;;17.49;100.00;-21156.25;5028981;28;20492;-76
2021/07/18 05:57:43;;;;;;;0.70;0.60;;;;;;;17.60;100.00;-21159.41;5040014;28;20472;-74
2021/07/18 06:00:12;;;;;;;0.70;0.70;;;;;;;17.69;100.00;-21161.75;5045958;28;20567;-75
2021/07/18 06:02:41;;;;;;;0.77;0.70;;;;;;;17.76;100.00;-21163.66;5029110;28;20543;-75
2021/07/18 06:05:09;;;;;;;0.70;0.70;;;;;;;17.75;100.00;-21163.25;5028637;28;20949;-76
2021/07/18 06:07:36;;;;;;;0.70;0.67;;;;;;;17.86;100.00;-21166.28;5028560;28;20473;-75
2021/07/18 06:10:05;;;;;;;1.23;1.13;;;;;;;17.90;100.00;-21167.25;5028310;28;20452;-75
2021/07/18 06:12:32;;;;;;;0.70;0.60;;;;;;;18.14;100.00;-21173.81;5019523;28;20620;-74
2021/07/18 06:15:05;;;;;;;0.70;0.60;;;;;;;18.15;100.00;-21174.09;5048171;28;20447;-75
2021/07/18 06:17:32;;;;;;;1.10;1.00;;;;;;;18.18;100.00;-21174.78;5046201;28;20456;-74
2021/07/18 06:19:59;;;;;;;0.70;0.60;;;;;;;18.43;100.00;-21181.47;5046041;28;20913;-75
2021/07/18 06:22:27;;;;;;;0.70;0.60;;;;;;;18.45;100.00;-21182.16;5046701;28;20488;-73
2021/07/18 06:24:54;;;;;;;0.80;0.70;;;;;;;18.71;100.00;-21189.16;5046064;28;20459;-75
2021/07/18 06:27:21;;;;;;;0.70;0.70;;;;;;;18.60;100.00;-21186.13;5035487;28;20471;-75
2021/07/18 06:29:48;;;;;;;0.77;0.70;;;;;;;18.71;100.00;-21189.16;5027196;28;20462;-74
2021/07/18 06:32:16;;;;;;;0.80;0.70;;;;;;;18.91;100.00;-21194.34;5028344;28;20454;-74
2021/07/18 06:34:47;;;;;;;0.70;0.70;;;;;;;18.91;100.00;-21194.50;5043544;28;20952;-73
2021/07/18 06:37:17;;;;;;;0.80;0.77;;;;;;;19.08;100.00;-21199.00;5034393;28;20464;-75
2021/07/18 06:39:44;;;;;;;0.80;0.80;;;;;;;19.21;100.00;-21202.56;5026700;28;20508;-74
2021/07/18 06:42:11;;;;;;;0.70;0.60;;;;;;;19.22;100.00;-21202.84;5028313;28;20876;-74
2021/07/18 06:44:38;;;;;;;0.73;0.70;;;;;;;19.40;100.00;-21207.47;5043782;28;21003;-75
2021/07/18 06:47:06;;;;;;;0.80;0.70;;;;;;;19.49;100.00;-21210.09;5046197;28;20673;-73
2021/07/18 06:49:35;;;;;;;0.70;0.70;;;;;;;19.54;100.00;-21211.31;5037607;28;20500;-73
2021/07/18 06:52:02;;;;;;;0.70;0.63;;;;;;;19.57;100.00;-21212.13;5027466;28;20542;-73
2021/07/18 06:54:30;;;;;;;0.70;0.60;;;;;;;19.63;100.00;-21213.78;5045836;28;21101;-73
2021/07/18 06:56:57;;;;;;;0.70;0.70;;;;;;;19.82;100.00;-21218.69;5030004;28;20827;-74
2021/07/18 06:59:24;;;;;;;0.70;0.60;;;;;;;19.95;100.00;-21222.38;5047170;28;20542;-73
2021/07/18 07:01:51;;;;;;;1.37;1.27;;;;;;;20.20;100.00;-21229.06;5047159;28;20482;-74
2021/07/18 07:04:18;;;;;;;0.80;0.70;;;;;;;20.19;100.00;-21228.66;5047285;28;20971;-73
2021/07/18 07:06:47;;;;;;;0.70;0.60;;;;;;;20.26;100.00;-21230.59;5047204;28;20975;-73
2021/07/18 07:09:14;;;;;;;0.70;0.70;;;;;;;20.26;100.00;-21230.72;5028593;28;20550;-75
2021/07/18 07:11:40;;;;;;;0.70;0.70;;;;;;;20.42;100.00;-21234.94;5044957;28;20452;-75
2021/07/18 07:14:09;;;;;;;0.70;0.70;;;;;;;20.59;100.00;-21000.91;5046910;28;20543;-75
2021/07/18 07:16:36;;;;;;;0.80;0.70;;;;;;;20.56;100.00;-20547.00;5046683;28;20512;-74
2021/07/18 07:19:04;;;;;;;0.70;0.70;;;;;;;20.66;100.00;-20040.50;5045099;28;20455;-73
2021/07/18 07:21:31;;;;;;;0.70;0.70;;;;;;;20.90;100.00;-19524.34;5047349;28;20479;-74
2021/07/18 07:24:00;;;;;;;0.87;0.80;;;;;;;20.84;100.00;-19003.25;5045647;28;20495;-74
2021/07/18 07:26:28;;;;;;;0.70;0.60;;;;;;;21.04;100.00;-18345.41;5042259;28;20460;-73
2021/07/18 07:28:55;;;;;;;0.70;0.60;;;;;;;21.28;100.00;-17473.53;5046026;28;20455;-75
2021/07/18 07:31:22;;;;;;;0.70;0.70;;;;;;;21.12;100.00;-16868.47;5030926;28;20506;-73
2021/07/18 07:33:49;;;;;;;0.70;0.70;;;;;;;21.42;100.00;-15682.72;5032606;28;20454;-73
2021/07/18 07:36:17;;;;;;;0.73;0.63;;;;;;;21.67;100.00;-15265.78;5040815;28;20468;-73
2021/07/18 07:38:44;;;;;;;0.70;0.70;;;;;;;21.65;100.00;-16169.28;5046674;28;20452;-73
2021/07/18 07:41:13;;;;;;;0.70;0.60;;;;;;;21.90;100.00;-17540.03;5030575;28;20466;-73
2021/07/18 07:43:40;;;;;;;0.80;0.70;;;;;;;21.99;100.00;-19456.13;5024381;28;20491;-73
2021/07/18 07:46:07;;;;;;;0.70;0.70;;;;;;;22.16;100.00;-21281.34;5046120;28;20430;-74
2021/07/18 07:48:35;;;;;;;0.73;0.70;;;;;;;22.40;100.00;-21287.72;5042489;28;20808;-73
2021/07/18 07:51:04;;;;;;;0.80;0.70;;;;;;;22.17;100.00;-21281.75;5024892;28;20435;-74
2021/07/18 07:53:31;;;;;;;0.80;0.70;;;;;;;22.27;100.00;-21284.19;5041270;28;20459;-73
2021/07/18 07:55:59;;;;;;;0.80;0.70;;;;;;;22.38;100.00;-21287.19;5045675;28;20463;-74
2021/07/18 07:58:27;;;;;;;0.80;0.70;;;;;;;22.47;100.00;-21289.63;5047261;28;20434;-74
2021/07/18 08:00:58;;;;;;;0.70;0.67;;;;;;;22.40;100.00;-21287.88;5041368;28;20499;-73
2021/07/18 08:03:27;;;;;;;0.80;0.70;;;;;;;22.58;100.00;-21292.50;5044336;28;20480;-73
2021/07/18 08:05:55;;;;;;;0.70;0.60;;;;;;;22.75;100.00;-21297.00;5044047;28;20988;-73
2021/07/18 08:08:22;;;;;;;0.70;0.60;;;;;;;22.83;100.00;-21299.16;5042335;28;20467;-74
2021/07/18 08:11:04;;;;;;;0.80;0.60;;;;;;;23.28;100.00;-21311.13;5045022;28;20556;-74
2021/07/18 08:13:33;;;;;;;0.80;0.70;;;;;;;23.37;100.00;-21313.72;5044544;28;20456;-74
2021/07/18 08:16:01;;;;;;;0.80;0.60;;;;;;;23.44;100.00;-21315.50;5036513;28;20464;-75
2021/07/18 08:18:28;;;;;;;1.27;1.17;;;;;;;23.73;100.00;-21323.09;5027161;28;20452;-74
2021/07/18 08:20:55;;;;;;;0.70;0.60;;;;;;;23.91;100.00;-21328.00;5025409;28;21225;-74
2021/07/18 08:23:22;;;;;;;0.70;0.60;;;;;;;24.09;100.00;-21332.88;5035127;28;21469;-74
2021/07/18 08:25:49;;;;;;;0.80;0.70;;;;;;;24.03;100.00;-21331.25;5045434;28;20475;-75
2021/07/18 08:28:16;;;;;;;0.70;0.60;;;;;;;23.91;100.00;-21328.00;5030496;28;20459;-74
2021/07/18 08:30:44;;;;;;;0.80;0.70;;;;;;;24.08;100.00;-21332.47;5049595;28;20471;-73
2021/07/18 08:33:11;;;;;;;0.70;0.60;;;;;;;24.34;100.00;-21339.41;5048047;28;20994;-74
2021/07/18 08:35:39;;;;;;;0.70;0.60;;;;;;;24.82;100.00;-21352.16;5050362;28;20447;-74
2021/07/18 08:38:06;;;;;;;0.80;0.70;;;;;;;24.55;100.00;-21345.09;5049813;28;20903;-74
2021/07/18 08:40:35;;;;;;;0.70;0.60;;;;;;;24.59;100.00;-21346.19;5049456;28;20507;-74
2021/07/18 08:43:04;;;;;;;0.70;0.60;;;;;;;25.46;100.00;-21369.25;5047266;28;20779;-74
2021/07/18 08:45:31;;;;;;;0.70;0.60;;;;;;;25.59;100.00;-21372.66;5036137;28;20479;-73
2021/07/18 08:47:59;;;;;;;0.70;0.60;;;;;;;26.06;100.00;-21384.97;5032404;28;20471;-74
2021/07/18 08:50:27;;;;;;;0.70;0.60;;;;;;;25.94;100.00;-21382.00;5029202;28;20452;-74
2021/07/18 08:52:55;;;;;;;0.70;0.50;;;;;;;26.29;100.00;-21391.06;5029200;28;20457;-74
2021/07/18 08:55:23;;;;;;;0.70;0.50;;;;;;;26.47;100.00;-21396.09;5030023;28;20493;-75
2021/07/18 08:57:50;;;;;;;0.70;0.50;;;;;;;26.77;100.00;-21403.94;5011898;28;20461;-74
2021/07/18 09:00:18;;;;;;;0.80;0.70;;;;;;;26.11;100.00;-21386.34;5042052;28;21027;-75
2021/07/18 09:02:45;;;;;;;0.70;0.50;;;;;;;26.74;100.00;-21403.25;5047179;28;20443;-75
2021/07/18 09:05:13;;;;;;;0.70;0.50;;;;;;;27.26;100.00;-21416.91;5047334;28;20456;-75
2021/07/18 09:07:46;;;;;;;0.90;0.83;;;;;;;27.56;100.00;-21424.75;5049254;28;20482;-75
2021/07/18 09:10:14;;;;;;;0.70;0.50;;;;;;;27.20;100.00;-21415.28;5049128;28;20510;-75
2021/07/18 09:12:41;;;;;;;0.70;0.57;;;;;;;27.31;100.00;-21418.25;5048947;28;20976;-75
2021/07/18 09:15:09;;;;;;;0.70;0.50;;;;;;;27.89;100.00;-21433.66;5028998;28;20469;-75
2021/07/18 09:17:39;;;;;;;0.70;0.50;;;;;;;28.26;100.00;-21443.38;5032275;28;20463;-76
2021/07/18 09:20:16;;;;;;;0.70;0.50;;;;;;;28.59;100.00;-21452.03;5037054;28;20464;-75
2021/07/18 09:22:43;;;;;;;0.70;0.50;;;;;;;28.75;100.00;-21456.34;5033178;28;20541;-74
2021/07/18 09:25:11;;;;;;;0.70;0.50;;;;;;;28.75;100.00;-21456.34;5024116;28;20472;-75
2021/07/18 09:27:39;;;;;;;0.70;0.50;;;;;;;28.22;100.00;-21442.31;5042469;28;20454;-74
2021/07/18 09:30:09;;;;;;;0.70;0.50;;;;;;;28.68;100.00;-21454.44;5038990;28;20472;-76
2021/07/18 09:32:39;;;;;;;0.70;0.50;;;;;;;29.53;100.00;-21476.97;5051576;28;20448;-75
2021/07/18 09:35:08;;;;;;;0.70;0.50;;;;;;;30.51;100.00;-21502.78;5045783;28;20460;-74
2021/07/18 09:37:38;;;;;;;0.70;0.50;;;;;;;30.68;100.00;-21507.22;5048923;28;20497;-75
2021/07/18 09:40:08;;;;;;;0.80;0.50;;;;;;;30.33;100.00;-21498.09;5049536;28;20800;-75
2021/07/18 09:42:41;;;;;;;0.80;0.50;;;;;;;31.13;100.00;-21519.06;5046853;28;20472;-74
2021/07/18 09:45:19;;;;;;;0.80;0.50;;;;;;;30.81;100.00;-21510.59;5046516;28;20577;-75
2021/07/18 09:48:08;;;;;;;0.90;0.70;;;;;;;31.05;100.00;-21516.91;5039166;28;20893;-75
2021/07/18 09:50:37;;;;;;;0.80;0.50;;;;;;;31.86;100.00;-21538.13;5029811;28;20904;-74
2021/07/18 09:53:12;;;;;;;0.80;0.50;;;;;;;32.49;100.00;-21554.75;5034736;28;20472;-75
2021/07/18 09:55:55;;;;;;;0.80;0.50;;;;;;;32.80;100.00;-21562.78;5031404;28;20475;-74
2021/07/18 09:58:23;;;;;;;0.80;0.50;;;;;;;31.34;100.00;-21524.44;5026759;28;20460;-75
2021/07/18 10:00:51;;;;;;;0.80;0.50;;;;;;;32.95;100.00;-21566.81;5027473;28;20897;-74
2021/07/18 10:03:22;;;;;;;0.80;0.50;;;;;;;32.81;100.00;-21563.19;5026390;28;20452;-76
2021/07/18 10:06:07;;;;;;;0.80;0.50;;;;;;;33.27;100.00;-21575.25;5027574;28;20531;-73
2021/07/18 10:08:37;;;;;;;0.80;0.50;;;;;;;32.85;100.00;-21564.25;5026022;28;20496;-74
2021/07/18 10:11:05;;;;;;;0.80;0.50;;;;;;;32.58;100.00;-21557.03;5030839;28;20464;-75
2021/07/18 10:13:33;;;;;;;0.80;0.50;;;;;;;32.43;100.00;-21553.28;5048519;28;20447;-75
2021/07/18 10:16:01;;;;;;;0.80;0.60;;;;;;;31.51;100.00;-21529.13;5047303;28;20951;-76
2021/07/18 10:18:29;;;;;;;0.80;0.50;;;;;;;31.95;100.00;-21540.53;5045898;28;20462;-75
2021/07/18 10:20:58;;;;;;;0.80;0.50;;;;;;;32.54;100.00;-21556.09;5037259;28;20536;-76
2021/07/18 10:23:26;;;;;;;0.80;0.50;;;;;;;32.60;100.00;-21557.69;5034925;28;20463;-74
2021/07/18 10:26:17;;;;;;;0.80;0.50;;;;;;;32.61;100.00;-21557.84;5031121;28;21028;-75
2021/07/18 10:28:44;;;;;;;0.80;0.50;;;;;;;31.96;100.00;-21540.94;5036088;28;20455;-75
2021/07/18 10:31:15;;;;;;;0.80;0.50;;;;;;;32.32;100.00;-21550.19;5034739;28;20456;-75
2021/07/18 10:33:44;;;;;;;0.80;0.50;;;;;;;31.16;100.00;-21519.88;5026762;28;20510;-76
2021/07/18 10:36:12;;;;;;;0.80;0.50;;;;;;;30.85;100.00;-21511.53;5025646;28;20480;-73
2021/07/18 10:38:39;;;;;;;0.80;0.50;;;;;;;30.95;100.00;-21514.22;5025757;28;20445;-76
2021/07/18 10:41:06;;;;;;;0.80;0.50;;;;;;;31.62;100.00;-21531.94;5028498;28;20472;-75
2021/07/18 10:43:41;;;;;;;0.80;0.50;;;;;;;32.20;100.00;-21547.09;5025983;28;21045;-75
2021/07/18 10:46:09;;;;;;;0.80;0.50;;;;;;;31.94;100.00;-21540.28;5031661;28;20468;-74
2021/07/18 10:48:45;;;;;;;0.80;0.50;;;;;;;32.35;100.00;-21551.13;5041559;28;20459;-75
2021/07/18 10:51:13;;;;;;;0.80;0.50;;;;;;;32.63;100.00;-21558.38;5028809;28;20456;-76
2021/07/18 10:53:40;;;;;;;0.80;0.50;;;;;;;32.99;100.00;-21567.88;5044696;28;20627;-76
2021/07/18 10:56:07;;;;;;;0.80;0.50;;;;;;;33.06;100.00;-21569.63;5039911;28;20483;-74
2021/07/18 10:58:48;;;;;;;0.80;0.50;;;;;;;32.98;100.00;-21567.63;5039928;28;21030;-76
2021/07/18 11:01:31;;;;;;;0.80;0.50;;;;;;;32.53;100.00;-21555.81;5018730;28;20527;-77
2021/07/18 11:03:59;;;;;;;0.80;0.50;;;;;;;32.62;100.00;-21558.22;5035238;28;20464;-76
2021/07/18 11:06:28;;;;;;;1.30;0.90;;;;;;;33.19;100.00;-21573.09;5035520;28;20517;-74
2021/07/18 11:09:12;;;;;;;0.80;0.60;;;;;;;31.79;100.00;-21536.38;5034773;28;20564;-77
2021/07/18 11:11:42;;;;;;;0.80;0.50;;;;;;;32.12;100.00;-21545.09;5035577;28;20952;-77
2021/07/18 11:14:26;;;;;;;0.80;0.50;;;;;;;32.26;100.00;-21548.59;5037004;28;20551;-76
2021/07/18 11:16:56;;;;;;;0.80;0.50;;;;;;;32.03;100.00;-21542.69;5035350;28;20506;-76
2021/07/18 11:19:57;;;;;;;0.80;0.50;;;;;;;32.00;100.00;-21541.88;5036588;28;21672;-77
2021/07/18 11:22:57;;;;;;;0.80;0.50;;;;;;;32.88;100.00;-21565.06;5032047;28;20497;-76